نيويورك, NY

04:43 AM EDT on هاêè 23, 2015 (GMT -0400)
Flatiron | | Change Station
CLOSE
Current Station
Personal Weather Stations
Location: New York, NY
Elevation: 207 ft
Nearby Weather Stations
Active Advisory: Special Statement

Elev 207 ft 40.74 °N, 73.99 °W | Updated 5 seconds ago

Clear
صافية
52.2 °F
Feels Like 52.2 °F
N
2.7
ريح متغير ريح from NNW
Gusts 4.9 mph

هذا اليوم
High -- | Low -- °F
--% Chance of Precip.
Yesterday
High -- | Low -- °F
Precip. -- في
5:32 AM 8:13 PM
الهلال الأول, 28% visible
الضغط 30.28 في
وضوح الرؤية 10.0 أميال
سحابات صافية
نقطة الندى 31 °F
الرطوبة 44%
Rainfall 0.00 في
عمق الثلج Not available.
الأشعة فوق البنفسجية 0.0 out of 12
Pollen 9.20 out of 12
جودة الهواء Not available.
Flu Activity Widespread
METAR KNYC 230751Z AUTO VRB04KT 10SM CLR 12/M04 A3030 RMK AO2 SLP252 T01171044

More Conditions Fewer Conditions

الضغط 30.28 في
وضوح الرؤية 10.0 أميال
سحابات صافية
نقطة الندى 31 °F
الرطوبة 44%
Rainfall 0.00 في
عمق الثلج Not available.
الأشعة فوق البنفسجية 0.0 out of 12
Pollen 9.20 out of 12
جودة الهواء Not available.
Flu Activity Widespread
METAR KNYC 230751Z AUTO VRB04KT 10SM CLR 12/M04 A3030 RMK AO2 SLP252 T01171044

More Conditions Fewer Conditions

10-Day Weather Forecast

Almanac

علم الفلك

May. 23, 2015 Rise Set
Actual Time
Civil Twilight
Nautical Twilight
Astronomical Twilight
قمر
Length Of Visible Light
طول الیوم
Tomorrow will be .
, % of the Moon is Illuminated

Today's Extremes

State Highs State Lows

Community

WunderPhotos

Upload Photos

1,823,403 photos uploaded!

WunderBlogs® & News

Nearby

جودة الهواء

  جودة الهواء AQ Index Pollutant
Not available.

عمق الثلج

Station Depth Elevation

Earthquake Activity

City Distance Mag. Time & Date
Minimum magnitude displayed is 2.5.

Coastal Water Temperatures

مكان درجات الحرارة

Stations

Nearby Weather Stations

Station Location الحرارة رياح باردة نقطة الندى الرطوبة ريح Precip. Elev تحديث Type
                   
Special Statement
Statement as of 04:29 AM EDT on هاêè 23, 2015

... Enhanced fire weather conditions today into early this
evening...

With daytime mixing and northwest flow... dewpoints will lower
into the 20s and upper teens as temperatures rise into the 60s.
The resulting relative humidity values will drop to 15 to 30
percent this afternoon into the early evening. The wind speeds
will be generally 10 to 15 mph on average with gusts up to 20 mph
and occasionally up to 25 mph. This will enhance the spread and
growth of any fires that develop.